sensor_id;sensor_type;location;lat;lon;timestamp;P1;durP1;ratioP1;P2;durP2;ratioP2
23586;SDS011;11971;51.148;4.104;2023-03-14T00:01:38;67.85;;;32.47;;
23586;SDS011;11971;51.148;4.104;2023-03-14T00:04:05;66.53;;;32.80;;
23586;SDS011;11971;51.148;4.104;2023-03-14T00:06:31;65.25;;;32.58;;
23586;SDS011;11971;51.148;4.104;2023-03-14T00:08:58;66.32;;;32.75;;
23586;SDS011;11971;51.148;4.104;2023-03-14T00:11:26;64.10;;;32.50;;
23586;SDS011;11971;51.148;4.104;2023-03-14T00:13:53;65.40;;;32.55;;
23586;SDS011;11971;51.148;4.104;2023-03-14T00:16:20;67.93;;;32.83;;
23586;SDS011;11971;51.148;4.104;2023-03-14T00:18:47;70.00;;;32.67;;
23586;SDS011;11971;51.148;4.104;2023-03-14T00:21:13;66.97;;;32.33;;
23586;SDS011;11971;51.148;4.104;2023-03-14T00:23:40;67.47;;;32.97;;
23586;SDS011;11971;51.148;4.104;2023-03-14T00:26:08;63.45;;;32.63;;
23586;SDS011;11971;51.148;4.104;2023-03-14T00:28:37;62.10;;;32.33;;
23586;SDS011;11971;51.148;4.104;2023-03-14T00:31:04;63.22;;;32.70;;
23586;SDS011;11971;51.148;4.104;2023-03-14T00:33:32;66.95;;;32.22;;
23586;SDS011;11971;51.148;4.104;2023-03-14T00:35:59;65.90;;;32.58;;
23586;SDS011;11971;51.148;4.104;2023-03-14T00:38:27;68.68;;;33.13;;
23586;SDS011;11971;51.148;4.104;2023-03-14T00:40:54;72.50;;;33.00;;
23586;SDS011;11971;51.148;4.104;2023-03-14T00:43:21;64.15;;;32.67;;
23586;SDS011;11971;51.148;4.104;2023-03-14T00:45:49;66.10;;;32.63;;
23586;SDS011;11971;51.148;4.104;2023-03-14T00:48:17;64.15;;;32.50;;
23586;SDS011;11971;51.148;4.104;2023-03-14T00:50:44;65.65;;;32.58;;
23586;SDS011;11971;51.148;4.104;2023-03-14T00:53:11;69.50;;;32.83;;
23586;SDS011;11971;51.148;4.104;2023-03-14T00:55:38;66.70;;;32.60;;
23586;SDS011;11971;51.148;4.104;2023-03-14T00:58:05;65.05;;;32.65;;
23586;SDS011;11971;51.148;4.104;2023-03-14T01:00:32;67.93;;;32.60;;
23586;SDS011;11971;51.148;4.104;2023-03-14T01:03:00;64.18;;;32.65;;
23586;SDS011;11971;51.148;4.104;2023-03-14T01:05:27;69.07;;;32.60;;
23586;SDS011;11971;51.148;4.104;2023-03-14T01:07:54;65.15;;;32.65;;
23586;SDS011;11971;51.148;4.104;2023-03-14T01:10:21;68.28;;;32.60;;
23586;SDS011;11971;51.148;4.104;2023-03-14T01:12:48;69.75;;;33.28;;
23586;SDS011;11971;51.148;4.104;2023-03-14T01:15:14;73.97;;;32.65;;
23586;SDS011;11971;51.148;4.104;2023-03-14T01:17:41;69.88;;;33.13;;
23586;SDS011;11971;51.148;4.104;2023-03-14T01:20:10;66.78;;;32.47;;
23586;SDS011;11971;51.148;4.104;2023-03-14T01:22:38;67.50;;;32.65;;
23586;SDS011;11971;51.148;4.104;2023-03-14T01:25:06;67.55;;;32.47;;
23586;SDS011;11971;51.148;4.104;2023-03-14T01:27:34;68.77;;;33.07;;
23586;SDS011;11971;51.148;4.104;2023-03-14T01:30:00;72.47;;;32.92;;
23586;SDS011;11971;51.148;4.104;2023-03-14T01:32:27;72.55;;;33.30;;
23586;SDS011;11971;51.148;4.104;2023-03-14T01:34:54;70.90;;;32.97;;
23586;SDS011;11971;51.148;4.104;2023-03-14T01:37:22;66.32;;;32.65;;
23586;SDS011;11971;51.148;4.104;2023-03-14T01:39:49;72.67;;;32.73;;
23586;SDS011;11971;51.148;4.104;2023-03-14T01:42:15;69.63;;;32.83;;
23586;SDS011;11971;51.148;4.104;2023-03-14T01:44:49;77.50;;;32.65;;
23586;SDS011;11971;51.148;4.104;2023-03-14T01:47:16;73.63;;;33.55;;
23586;SDS011;11971;51.148;4.104;2023-03-14T01:49:43;65.78;;;32.83;;
23586;SDS011;11971;51.148;4.104;2023-03-14T01:52:12;68.47;;;32.90;;
23586;SDS011;11971;51.148;4.104;2023-03-14T01:54:42;69.15;;;33.35;;
23586;SDS011;11971;51.148;4.104;2023-03-14T01:57:11;71.82;;;33.25;;
23586;SDS011;11971;51.148;4.104;2023-03-14T01:59:40;67.10;;;33.00;;
23586;SDS011;11971;51.148;4.104;2023-03-14T02:02:11;68.15;;;32.70;;
23586;SDS011;11971;51.148;4.104;2023-03-14T02:04:39;71.65;;;33.05;;
23586;SDS011;11971;51.148;4.104;2023-03-14T02:07:08;66.55;;;32.78;;
23586;SDS011;11971;51.148;4.104;2023-03-14T02:09:37;66.93;;;32.80;;
23586;SDS011;11971;51.148;4.104;2023-03-14T02:12:06;63.60;;;32.35;;
23586;SDS011;11971;51.148;4.104;2023-03-14T02:17:01;69.32;;;32.75;;
23586;SDS011;11971;51.148;4.104;2023-03-14T02:22:17;68.53;;;32.78;;
23586;SDS011;11971;51.148;4.104;2023-03-14T02:24:45;65.82;;;32.47;;
23586;SDS011;11971;51.148;4.104;2023-03-14T02:27:17;63.13;;;32.28;;
23586;SDS011;11971;51.148;4.104;2023-03-14T02:29:49;67.88;;;32.72;;
23586;SDS011;11971;51.148;4.104;2023-03-14T02:32:17;62.13;;;32.13;;
23586;SDS011;11971;51.148;4.104;2023-03-14T02:34:45;63.03;;;32.28;;
23586;SDS011;11971;51.148;4.104;2023-03-14T02:37:14;64.30;;;32.40;;
23586;SDS011;11971;51.148;4.104;2023-03-14T02:39:42;64.25;;;32.45;;
23586;SDS011;11971;51.148;4.104;2023-03-14T02:42:11;62.70;;;32.47;;
23586;SDS011;11971;51.148;4.104;2023-03-14T02:44:48;64.38;;;32.25;;
23586;SDS011;11971;51.148;4.104;2023-03-14T02:47:17;66.57;;;33.05;;
23586;SDS011;11971;51.148;4.104;2023-03-14T02:49:46;62.35;;;32.13;;
23586;SDS011;11971;51.148;4.104;2023-03-14T02:52:13;63.38;;;32.35;;
23586;SDS011;11971;51.148;4.104;2023-03-14T02:54:39;65.80;;;32.90;;
23586;SDS011;11971;51.148;4.104;2023-03-14T02:57:06;65.70;;;32.10;;
23586;SDS011;11971;51.148;4.104;2023-03-14T02:59:32;61.78;;;32.22;;
23586;SDS011;11971;51.148;4.104;2023-03-14T03:02:00;65.97;;;32.45;;
23586;SDS011;11971;51.148;4.104;2023-03-14T03:04:27;62.38;;;32.22;;
23586;SDS011;11971;51.148;4.104;2023-03-14T03:06:54;64.78;;;32.25;;
23586;SDS011;11971;51.148;4.104;2023-03-14T03:09:20;65.47;;;32.75;;
23586;SDS011;11971;51.148;4.104;2023-03-14T03:11:47;64.55;;;32.45;;
23586;SDS011;11971;51.148;4.104;2023-03-14T03:14:14;63.45;;;32.70;;
23586;SDS011;11971;51.148;4.104;2023-03-14T03:16:40;66.32;;;32.97;;
23586;SDS011;11971;51.148;4.104;2023-03-14T03:19:08;65.43;;;32.55;;
23586;SDS011;11971;51.148;4.104;2023-03-14T03:21:35;66.88;;;32.80;;
23586;SDS011;11971;51.148;4.104;2023-03-14T03:24:02;69.47;;;32.55;;
23586;SDS011;11971;51.148;4.104;2023-03-14T03:26:28;71.10;;;32.95;;
23586;SDS011;11971;51.148;4.104;2023-03-14T03:28:55;66.13;;;32.85;;
23586;SDS011;11971;51.148;4.104;2023-03-14T03:31:22;65.15;;;32.67;;
23586;SDS011;11971;51.148;4.104;2023-03-14T03:33:48;63.15;;;32.60;;
23586;SDS011;11971;51.148;4.104;2023-03-14T03:36:17;64.93;;;32.92;;
23586;SDS011;11971;51.148;4.104;2023-03-14T03:38:47;65.82;;;33.05;;
23586;SDS011;11971;51.148;4.104;2023-03-14T03:41:13;66.40;;;33.35;;
23586;SDS011;11971;51.148;4.104;2023-03-14T03:43:40;64.63;;;32.97;;
23586;SDS011;11971;51.148;4.104;2023-03-14T03:46:07;67.57;;;33.08;;
23586;SDS011;11971;51.148;4.104;2023-03-14T03:48:34;64.18;;;32.95;;
23586;SDS011;11971;51.148;4.104;2023-03-14T03:51:01;67.97;;;32.88;;
23586;SDS011;11971;51.148;4.104;2023-03-14T03:53:29;70.43;;;33.10;;
23586;SDS011;11971;51.148;4.104;2023-03-14T03:55:56;67.05;;;33.25;;
23586;SDS011;11971;51.148;4.104;2023-03-14T03:58:22;68.38;;;33.75;;
23586;SDS011;11971;51.148;4.104;2023-03-14T04:00:49;66.63;;;33.40;;
23586;SDS011;11971;51.148;4.104;2023-03-14T04:03:16;68.07;;;33.47;;
23586;SDS011;11971;51.148;4.104;2023-03-14T04:05:42;69.25;;;33.22;;
23586;SDS011;11971;51.148;4.104;2023-03-14T04:08:09;65.95;;;33.40;;
23586;SDS011;11971;51.148;4.104;2023-03-14T04:10:37;65.00;;;32.95;;
23586;SDS011;11971;51.148;4.104;2023-03-14T04:13:04;66.55;;;33.53;;
23586;SDS011;11971;51.148;4.104;2023-03-14T04:15:30;66.75;;;33.75;;
23586;SDS011;11971;51.148;4.104;2023-03-14T04:17:57;67.88;;;33.60;;
23586;SDS011;11971;51.148;4.104;2023-03-14T04:20:24;66.10;;;33.95;;
23586;SDS011;11971;51.148;4.104;2023-03-14T04:22:51;70.03;;;33.90;;
23586;SDS011;11971;51.148;4.104;2023-03-14T04:25:17;71.03;;;33.75;;
23586;SDS011;11971;51.148;4.104;2023-03-14T04:27:46;67.38;;;33.70;;
23586;SDS011;11971;51.148;4.104;2023-03-14T04:30:13;69.95;;;34.30;;
23586;SDS011;11971;51.148;4.104;2023-03-14T04:32:39;69.28;;;34.13;;
23586;SDS011;11971;51.148;4.104;2023-03-14T04:35:06;66.30;;;34.00;;
23586;SDS011;11971;51.148;4.104;2023-03-14T04:37:33;67.68;;;33.97;;
23586;SDS011;11971;51.148;4.104;2023-03-14T04:40:00;68.65;;;33.97;;
23586;SDS011;11971;51.148;4.104;2023-03-14T04:42:29;71.30;;;34.00;;
23586;SDS011;11971;51.148;4.104;2023-03-14T04:44:57;71.43;;;33.85;;
23586;SDS011;11971;51.148;4.104;2023-03-14T04:47:25;67.93;;;34.47;;
23586;SDS011;11971;51.148;4.104;2023-03-14T04:49:51;68.68;;;34.03;;
23586;SDS011;11971;51.148;4.104;2023-03-14T04:52:18;69.25;;;34.13;;
23586;SDS011;11971;51.148;4.104;2023-03-14T04:54:45;68.38;;;34.58;;
23586;SDS011;11971;51.148;4.104;2023-03-14T04:57:11;69.47;;;34.40;;
23586;SDS011;11971;51.148;4.104;2023-03-14T04:59:38;69.95;;;33.85;;
23586;SDS011;11971;51.148;4.104;2023-03-14T05:02:06;69.15;;;33.90;;
23586;SDS011;11971;51.148;4.104;2023-03-14T05:04:33;65.75;;;33.67;;
23586;SDS011;11971;51.148;4.104;2023-03-14T05:06:59;69.70;;;34.15;;
23586;SDS011;11971;51.148;4.104;2023-03-14T05:09:26;67.68;;;33.97;;
23586;SDS011;11971;51.148;4.104;2023-03-14T05:11:53;66.65;;;33.85;;
23586;SDS011;11971;51.148;4.104;2023-03-14T05:14:19;71.47;;;33.83;;
23586;SDS011;11971;51.148;4.104;2023-03-14T05:16:46;66.88;;;33.67;;
23586;SDS011;11971;51.148;4.104;2023-03-14T05:19:14;65.32;;;33.63;;
23586;SDS011;11971;51.148;4.104;2023-03-14T05:21:42;64.32;;;32.88;;
23586;SDS011;11971;51.148;4.104;2023-03-14T05:24:08;66.47;;;33.35;;
23586;SDS011;11971;51.148;4.104;2023-03-14T05:26:35;65.20;;;33.20;;
23586;SDS011;11971;51.148;4.104;2023-03-14T05:29:02;63.50;;;33.15;;
23586;SDS011;11971;51.148;4.104;2023-03-14T05:31:28;64.28;;;32.75;;
23586;SDS011;11971;51.148;4.104;2023-03-14T05:33:55;65.85;;;33.03;;
23586;SDS011;11971;51.148;4.104;2023-03-14T05:36:23;67.00;;;33.13;;
23586;SDS011;11971;51.148;4.104;2023-03-14T05:38:49;64.30;;;33.03;;
23586;SDS011;11971;51.148;4.104;2023-03-14T05:41:16;64.22;;;33.30;;
23586;SDS011;11971;51.148;4.104;2023-03-14T05:43:43;64.78;;;33.53;;
23586;SDS011;11971;51.148;4.104;2023-03-14T05:46:09;66.25;;;33.83;;
23586;SDS011;11971;51.148;4.104;2023-03-14T05:48:36;62.47;;;32.83;;
23586;SDS011;11971;51.148;4.104;2023-03-14T05:51:03;67.50;;;33.28;;
23586;SDS011;11971;51.148;4.104;2023-03-14T05:53:31;69.47;;;33.38;;
23586;SDS011;11971;51.148;4.104;2023-03-14T05:55:58;63.92;;;32.97;;
23586;SDS011;11971;51.148;4.104;2023-03-14T05:58:24;64.28;;;33.20;;
23586;SDS011;11971;51.148;4.104;2023-03-14T06:00:51;65.85;;;33.03;;
23586;SDS011;11971;51.148;4.104;2023-03-14T06:03:18;63.80;;;32.72;;
23586;SDS011;11971;51.148;4.104;2023-03-14T06:05:44;62.78;;;32.88;;
23586;SDS011;11971;51.148;4.104;2023-03-14T06:08:11;61.90;;;32.65;;
23586;SDS011;11971;51.148;4.104;2023-03-14T06:10:39;65.00;;;33.90;;
23586;SDS011;11971;51.148;4.104;2023-03-14T06:13:06;63.50;;;33.00;;
23586;SDS011;11971;51.148;4.104;2023-03-14T06:15:33;59.95;;;31.63;;
23586;SDS011;11971;51.148;4.104;2023-03-14T06:18:01;58.95;;;31.08;;
23586;SDS011;11971;51.148;4.104;2023-03-14T06:20:27;59.30;;;31.35;;
23586;SDS011;11971;51.148;4.104;2023-03-14T06:22:54;56.03;;;30.75;;
23586;SDS011;11971;51.148;4.104;2023-03-14T06:25:20;56.78;;;30.83;;
23586;SDS011;11971;51.148;4.104;2023-03-14T06:27:48;56.72;;;30.80;;
23586;SDS011;11971;51.148;4.104;2023-03-14T06:30:15;57.20;;;31.00;;
23586;SDS011;11971;51.148;4.104;2023-03-14T06:32:42;55.95;;;30.80;;
23586;SDS011;11971;51.148;4.104;2023-03-14T06:35:09;55.55;;;30.70;;
23586;SDS011;11971;51.148;4.104;2023-03-14T06:37:36;55.92;;;30.42;;
23586;SDS011;11971;51.148;4.104;2023-03-14T06:40:02;55.25;;;30.48;;
23586;SDS011;11971;51.148;4.104;2023-03-14T06:42:30;54.47;;;30.25;;
23586;SDS011;11971;51.148;4.104;2023-03-14T06:44:58;55.78;;;30.63;;
23586;SDS011;11971;51.148;4.104;2023-03-14T06:47:24;58.35;;;30.25;;
23586;SDS011;11971;51.148;4.104;2023-03-14T06:49:51;58.15;;;30.70;;
23586;SDS011;11971;51.148;4.104;2023-03-14T06:52:18;56.53;;;30.90;;
23586;SDS011;11971;51.148;4.104;2023-03-14T06:54:45;56.50;;;30.75;;
23586;SDS011;11971;51.148;4.104;2023-03-14T06:57:11;56.28;;;30.70;;
23586;SDS011;11971;51.148;4.104;2023-03-14T06:59:38;56.20;;;30.55;;
23586;SDS011;11971;51.148;4.104;2023-03-14T07:02:07;54.20;;;30.20;;
23586;SDS011;11971;51.148;4.104;2023-03-14T07:04:34;61.30;;;31.08;;
23586;SDS011;11971;51.148;4.104;2023-03-14T07:07:01;56.92;;;30.55;;
23586;SDS011;11971;51.148;4.104;2023-03-14T07:09:27;57.67;;;30.58;;
23586;SDS011;11971;51.148;4.104;2023-03-14T07:11:54;56.17;;;30.67;;
23586;SDS011;11971;51.148;4.104;2023-03-14T07:14:20;57.25;;;30.67;;
23586;SDS011;11971;51.148;4.104;2023-03-14T07:16:47;55.13;;;30.08;;
23586;SDS011;11971;51.148;4.104;2023-03-14T07:19:15;59.13;;;30.58;;
23586;SDS011;11971;51.148;4.104;2023-03-14T07:21:42;59.13;;;30.40;;
23586;SDS011;11971;51.148;4.104;2023-03-14T07:24:08;56.80;;;30.65;;
23586;SDS011;11971;51.148;4.104;2023-03-14T07:26:35;55.85;;;30.73;;
23586;SDS011;11971;51.148;4.104;2023-03-14T07:29:02;56.30;;;31.17;;
23586;SDS011;11971;51.148;4.104;2023-03-14T07:31:28;60.35;;;31.00;;
23586;SDS011;11971;51.148;4.104;2023-03-14T07:33:55;55.25;;;30.73;;
23586;SDS011;11971;51.148;4.104;2023-03-14T07:36:23;55.92;;;30.88;;
23586;SDS011;11971;51.148;4.104;2023-03-14T07:38:50;56.85;;;31.00;;
23586;SDS011;11971;51.148;4.104;2023-03-14T07:41:17;56.63;;;30.58;;
23586;SDS011;11971;51.148;4.104;2023-03-14T07:43:45;57.63;;;31.00;;
23586;SDS011;11971;51.148;4.104;2023-03-14T07:46:12;57.08;;;30.48;;
23586;SDS011;11971;51.148;4.104;2023-03-14T07:48:39;54.65;;;30.45;;
23586;SDS011;11971;51.148;4.104;2023-03-14T07:51:06;55.15;;;30.63;;
23586;SDS011;11971;51.148;4.104;2023-03-14T07:53:34;54.35;;;30.23;;
23586;SDS011;11971;51.148;4.104;2023-03-14T07:56:00;55.57;;;30.57;;
23586;SDS011;11971;51.148;4.104;2023-03-14T07:58:27;54.30;;;30.35;;
23586;SDS011;11971;51.148;4.104;2023-03-14T08:00:54;54.97;;;30.55;;
23586;SDS011;11971;51.148;4.104;2023-03-14T08:03:20;54.63;;;30.48;;
23586;SDS011;11971;51.148;4.104;2023-03-14T08:05:47;56.08;;;30.80;;
23586;SDS011;11971;51.148;4.104;2023-03-14T08:08:14;54.33;;;30.17;;
23586;SDS011;11971;51.148;4.104;2023-03-14T08:10:42;55.10;;;30.15;;
23586;SDS011;11971;51.148;4.104;2023-03-14T08:13:09;62.90;;;31.17;;
23586;SDS011;11971;51.148;4.104;2023-03-14T08:15:36;57.83;;;30.58;;
23586;SDS011;11971;51.148;4.104;2023-03-14T08:18:03;58.40;;;30.40;;
23586;SDS011;11971;51.148;4.104;2023-03-14T08:20:30;59.47;;;30.83;;
23586;SDS011;11971;51.148;4.104;2023-03-14T08:22:57;56.40;;;30.33;;
23586;SDS011;11971;51.148;4.104;2023-03-14T08:25:24;55.05;;;30.55;;
23586;SDS011;11971;51.148;4.104;2023-03-14T08:27:53;54.55;;;30.05;;
23586;SDS011;11971;51.148;4.104;2023-03-14T08:30:20;54.53;;;30.27;;
23586;SDS011;11971;51.148;4.104;2023-03-14T08:32:48;63.33;;;30.45;;
23586;SDS011;11971;51.148;4.104;2023-03-14T08:35:15;56.00;;;30.80;;
23586;SDS011;11971;51.148;4.104;2023-03-14T08:37:41;66.35;;;31.10;;
23586;SDS011;11971;51.148;4.104;2023-03-14T08:40:08;55.47;;;30.55;;
23586;SDS011;11971;51.148;4.104;2023-03-14T08:42:37;57.08;;;30.25;;
23586;SDS011;11971;51.148;4.104;2023-03-14T08:45:06;55.40;;;30.75;;
23586;SDS011;11971;51.148;4.104;2023-03-14T08:47:33;55.42;;;30.35;;
23586;SDS011;11971;51.148;4.104;2023-03-14T08:50:00;59.60;;;30.85;;
23586;SDS011;11971;51.148;4.104;2023-03-14T08:52:26;57.08;;;30.77;;
23586;SDS011;11971;51.148;4.104;2023-03-14T08:54:53;56.25;;;31.02;;
23586;SDS011;11971;51.148;4.104;2023-03-14T08:57:20;55.63;;;30.75;;
23586;SDS011;11971;51.148;4.104;2023-03-14T08:59:46;57.78;;;31.38;;
23586;SDS011;11971;51.148;4.104;2023-03-14T09:02:14;57.20;;;31.40;;
23586;SDS011;11971;51.148;4.104;2023-03-14T09:04:42;58.03;;;30.88;;
23586;SDS011;11971;51.148;4.104;2023-03-14T09:07:08;57.13;;;31.27;;
23586;SDS011;11971;51.148;4.104;2023-03-14T09:09:35;55.70;;;30.65;;
23586;SDS011;11971;51.148;4.104;2023-03-14T09:12:02;59.60;;;31.10;;
23586;SDS011;11971;51.148;4.104;2023-03-14T09:14:29;57.75;;;31.13;;
23586;SDS011;11971;51.148;4.104;2023-03-14T09:16:56;59.70;;;32.80;;
23586;SDS011;11971;51.148;4.104;2023-03-14T09:19:25;59.17;;;32.08;;
23586;SDS011;11971;51.148;4.104;2023-03-14T09:21:51;57.42;;;31.52;;
23586;SDS011;11971;51.148;4.104;2023-03-14T09:24:18;58.80;;;32.65;;
23586;SDS011;11971;51.148;4.104;2023-03-14T09:26:44;58.70;;;32.38;;
23586;SDS011;11971;51.148;4.104;2023-03-14T09:29:11;55.75;;;31.05;;
23586;SDS011;11971;51.148;4.104;2023-03-14T09:31:37;59.30;;;32.67;;
23586;SDS011;11971;51.148;4.104;2023-03-14T09:34:04;61.63;;;32.00;;
23586;SDS011;11971;51.148;4.104;2023-03-14T09:36:32;55.35;;;30.77;;
23586;SDS011;11971;51.148;4.104;2023-03-14T09:38:59;55.37;;;31.03;;
23586;SDS011;11971;51.148;4.104;2023-03-14T09:41:26;56.08;;;31.40;;
23586;SDS011;11971;51.148;4.104;2023-03-14T09:43:57;59.75;;;30.90;;
23586;SDS011;11971;51.148;4.104;2023-03-14T09:46:27;53.90;;;30.08;;
23586;SDS011;11971;51.148;4.104;2023-03-14T09:48:55;55.83;;;31.15;;
23586;SDS011;11971;51.148;4.104;2023-03-14T09:51:21;58.38;;;31.85;;
23586;SDS011;11971;51.148;4.104;2023-03-14T09:53:50;52.78;;;29.73;;
23586;SDS011;11971;51.148;4.104;2023-03-14T09:56:18;54.58;;;30.45;;
23586;SDS011;11971;51.148;4.104;2023-03-14T09:58:48;55.63;;;31.10;;
23586;SDS011;11971;51.148;4.104;2023-03-14T10:01:18;55.95;;;30.77;;
23586;SDS011;11971;51.148;4.104;2023-03-14T10:03:49;56.50;;;30.63;;
23586;SDS011;11971;51.148;4.104;2023-03-14T10:06:16;59.17;;;31.13;;
23586;SDS011;11971;51.148;4.104;2023-03-14T10:08:43;54.65;;;30.15;;
23586;SDS011;11971;51.148;4.104;2023-03-14T10:11:14;54.78;;;30.13;;
23586;SDS011;11971;51.148;4.104;2023-03-14T10:13:47;53.35;;;29.83;;
23586;SDS011;11971;51.148;4.104;2023-03-14T10:16:16;52.85;;;29.88;;
23586;SDS011;11971;51.148;4.104;2023-03-14T10:18:44;57.10;;;30.23;;
23586;SDS011;11971;51.148;4.104;2023-03-14T10:21:16;52.47;;;29.58;;
23586;SDS011;11971;51.148;4.104;2023-03-14T10:23:46;54.28;;;30.08;;
23586;SDS011;11971;51.148;4.104;2023-03-14T10:26:17;54.30;;;29.65;;
23586;SDS011;11971;51.148;4.104;2023-03-14T10:28:44;56.55;;;30.23;;
23586;SDS011;11971;51.148;4.104;2023-03-14T10:31:13;54.00;;;30.20;;
23586;SDS011;11971;51.148;4.104;2023-03-14T10:33:40;56.42;;;30.38;;
23586;SDS011;11971;51.148;4.104;2023-03-14T10:36:14;56.17;;;30.48;;
23586;SDS011;11971;51.148;4.104;2023-03-14T10:38:44;55.13;;;30.42;;
23586;SDS011;11971;51.148;4.104;2023-03-14T10:41:16;54.53;;;30.27;;
23586;SDS011;11971;51.148;4.104;2023-03-14T10:43:43;55.05;;;30.65;;
23586;SDS011;11971;51.148;4.104;2023-03-14T10:46:13;56.38;;;30.95;;
23586;SDS011;11971;51.148;4.104;2023-03-14T10:48:41;54.70;;;30.42;;
23586;SDS011;11971;51.148;4.104;2023-03-14T10:51:08;56.25;;;30.88;;
23586;SDS011;11971;51.148;4.104;2023-03-14T10:53:40;55.83;;;30.63;;
23586;SDS011;11971;51.148;4.104;2023-03-14T10:56:11;56.58;;;30.73;;
23586;SDS011;11971;51.148;4.104;2023-03-14T10:58:41;57.78;;;30.98;;
23586;SDS011;11971;51.148;4.104;2023-03-14T11:01:19;58.25;;;31.73;;
23586;SDS011;11971;51.148;4.104;2023-03-14T11:03:54;60.97;;;31.33;;
23586;SDS011;11971;51.148;4.104;2023-03-14T11:06:25;56.30;;;31.23;;
23586;SDS011;11971;51.148;4.104;2023-03-14T11:08:59;58.60;;;31.58;;
23586;SDS011;11971;51.148;4.104;2023-03-14T11:11:30;58.72;;;31.27;;
23586;SDS011;11971;51.148;4.104;2023-03-14T11:14:01;60.53;;;31.65;;
23586;SDS011;11971;51.148;4.104;2023-03-14T11:16:38;56.55;;;31.20;;
23586;SDS011;11971;51.148;4.104;2023-03-14T11:21:59;56.70;;;30.50;;
23586;SDS011;11971;51.148;4.104;2023-03-14T11:24:33;59.38;;;31.35;;
23586;SDS011;11971;51.148;4.104;2023-03-14T11:27:06;63.65;;;31.00;;
23586;SDS011;11971;51.148;4.104;2023-03-14T11:29:43;59.00;;;31.00;;
23586;SDS011;11971;51.148;4.104;2023-03-14T11:32:19;61.08;;;30.88;;
23586;SDS011;11971;51.148;4.104;2023-03-14T11:34:52;55.75;;;30.00;;
23586;SDS011;11971;51.148;4.104;2023-03-14T11:37:22;56.20;;;30.83;;
23586;SDS011;11971;51.148;4.104;2023-03-14T11:39:53;55.47;;;30.13;;
23586;SDS011;11971;51.148;4.104;2023-03-14T11:42:23;59.47;;;29.98;;
23586;SDS011;11971;51.148;4.104;2023-03-14T11:44:52;62.60;;;30.20;;
23586;SDS011;11971;51.148;4.104;2023-03-14T11:47:21;60.17;;;30.77;;
23586;SDS011;11971;51.148;4.104;2023-03-14T11:52:17;57.13;;;30.60;;
23586;SDS011;11971;51.148;4.104;2023-03-14T11:54:48;62.75;;;31.27;;
23586;SDS011;11971;51.148;4.104;2023-03-14T11:57:17;68.35;;;31.85;;
23586;SDS011;11971;51.148;4.104;2023-03-14T11:59:46;59.53;;;30.77;;
23586;SDS011;11971;51.148;4.104;2023-03-14T12:02:19;58.65;;;30.55;;
23586;SDS011;11971;51.148;4.104;2023-03-14T12:04:51;61.60;;;31.60;;
23586;SDS011;11971;51.148;4.104;2023-03-14T12:07:33;60.53;;;30.52;;
23586;SDS011;11971;51.148;4.104;2023-03-14T12:10:03;58.63;;;30.13;;
23586;SDS011;11971;51.148;4.104;2023-03-14T12:12:30;55.20;;;30.15;;
23586;SDS011;11971;51.148;4.104;2023-03-14T12:14:58;55.05;;;30.35;;
23586;SDS011;11971;51.148;4.104;2023-03-14T12:17:28;62.42;;;30.23;;
23586;SDS011;11971;51.148;4.104;2023-03-14T12:20:01;97.93;;;31.20;;
23586;SDS011;11971;51.148;4.104;2023-03-14T12:22:33;61.42;;;30.40;;
23586;SDS011;11971;51.148;4.104;2023-03-14T12:30:30;66.97;;;31.13;;
23586;SDS011;11971;51.148;4.104;2023-03-14T12:38:52;65.35;;;31.10;;
23586;SDS011;11971;51.148;4.104;2023-03-14T12:41:24;65.03;;;30.85;;
23586;SDS011;11971;51.148;4.104;2023-03-14T12:43:51;60.40;;;31.33;;
23586;SDS011;11971;51.148;4.104;2023-03-14T12:46:21;58.33;;;30.85;;
23586;SDS011;11971;51.148;4.104;2023-03-14T12:48:49;69.95;;;30.67;;
23586;SDS011;11971;51.148;4.104;2023-03-14T12:51:26;57.47;;;30.85;;
23586;SDS011;11971;51.148;4.104;2023-03-14T12:56:56;56.97;;;30.65;;
23586;SDS011;11971;51.148;4.104;2023-03-14T12:59:34;69.07;;;31.08;;
23586;SDS011;11971;51.148;4.104;2023-03-14T13:02:09;56.10;;;31.02;;
23586;SDS011;11971;51.148;4.104;2023-03-14T13:04:45;59.60;;;30.60;;
23586;SDS011;11971;51.148;4.104;2023-03-14T13:07:28;59.25;;;31.00;;
23586;SDS011;11971;51.148;4.104;2023-03-14T13:10:04;61.80;;;30.98;;
23586;SDS011;11971;51.148;4.104;2023-03-14T13:12:44;59.10;;;30.73;;
23586;SDS011;11971;51.148;4.104;2023-03-14T13:15:19;56.55;;;30.40;;
23586;SDS011;11971;51.148;4.104;2023-03-14T13:17:48;59.25;;;30.48;;
23586;SDS011;11971;51.148;4.104;2023-03-14T13:20:17;64.10;;;31.85;;
23586;SDS011;11971;51.148;4.104;2023-03-14T13:22:49;56.95;;;30.83;;
23586;SDS011;11971;51.148;4.104;2023-03-14T13:25:16;56.55;;;30.35;;
23586;SDS011;11971;51.148;4.104;2023-03-14T13:27:46;60.17;;;31.25;;
23586;SDS011;11971;51.148;4.104;2023-03-14T13:30:17;62.15;;;30.23;;
23586;SDS011;11971;51.148;4.104;2023-03-14T13:32:46;61.33;;;30.73;;
23586;SDS011;11971;51.148;4.104;2023-03-14T13:35:14;57.13;;;30.98;;
23586;SDS011;11971;51.148;4.104;2023-03-14T13:37:42;58.88;;;31.00;;
23586;SDS011;11971;51.148;4.104;2023-03-14T13:40:18;59.88;;;30.52;;
23586;SDS011;11971;51.148;4.104;2023-03-14T13:42:46;56.08;;;30.73;;
23586;SDS011;11971;51.148;4.104;2023-03-14T13:45:13;55.25;;;30.30;;
23586;SDS011;11971;51.148;4.104;2023-03-14T13:47:40;58.80;;;30.75;;
23586;SDS011;11971;51.148;4.104;2023-03-14T13:50:12;59.15;;;30.77;;
23586;SDS011;11971;51.148;4.104;2023-03-14T13:52:41;56.97;;;30.73;;
23586;SDS011;11971;51.148;4.104;2023-03-14T13:55:13;62.00;;;31.50;;
23586;SDS011;11971;51.148;4.104;2023-03-14T13:57:47;57.20;;;30.60;;
23586;SDS011;11971;51.148;4.104;2023-03-14T14:00:19;61.30;;;32.92;;
23586;SDS011;11971;51.148;4.104;2023-03-14T14:02:48;60.65;;;31.88;;
23586;SDS011;11971;51.148;4.104;2023-03-14T14:05:16;55.15;;;30.13;;
23586;SDS011;11971;51.148;4.104;2023-03-14T14:07:44;57.40;;;30.95;;
23586;SDS011;11971;51.148;4.104;2023-03-14T14:10:11;56.38;;;31.38;;
23586;SDS011;11971;51.148;4.104;2023-03-14T14:12:39;54.75;;;30.38;;
23586;SDS011;11971;51.148;4.104;2023-03-14T14:15:11;55.83;;;29.95;;
23586;SDS011;11971;51.148;4.104;2023-03-14T14:17:40;54.35;;;30.35;;
23586;SDS011;11971;51.148;4.104;2023-03-14T14:20:12;56.75;;;31.75;;
23586;SDS011;11971;51.148;4.104;2023-03-14T14:22:44;57.00;;;31.90;;
23586;SDS011;11971;51.148;4.104;2023-03-14T14:25:12;54.47;;;30.38;;
23586;SDS011;11971;51.148;4.104;2023-03-14T14:27:41;54.20;;;29.97;;
23586;SDS011;11971;51.148;4.104;2023-03-14T14:32:56;55.38;;;30.33;;
23586;SDS011;11971;51.148;4.104;2023-03-14T14:35:36;61.97;;;30.77;;
23586;SDS011;11971;51.148;4.104;2023-03-14T14:38:08;57.05;;;31.30;;
23586;SDS011;11971;51.148;4.104;2023-03-14T14:40:43;58.08;;;32.08;;
23586;SDS011;11971;51.148;4.104;2023-03-14T14:43:11;59.00;;;31.90;;
23586;SDS011;11971;51.148;4.104;2023-03-14T14:45:43;58.85;;;31.55;;
23586;SDS011;11971;51.148;4.104;2023-03-14T14:50:55;57.30;;;30.38;;
23586;SDS011;11971;51.148;4.104;2023-03-14T14:53:25;55.03;;;29.98;;
23586;SDS011;11971;51.148;4.104;2023-03-14T14:55:54;58.72;;;31.50;;
23586;SDS011;11971;51.148;4.104;2023-03-14T14:58:24;57.75;;;31.85;;